Time;durP1;ratioP1;P1;durP2;ratioP2;P2;SDS_P1;SDS_P2;PMS_P1;PMS_P2;Temp;Humidity;BMP_temperature;BMP_pressure;BME280_temperature;BME280_humidity;BME280_pressure;Samples;Min_cycle;Max_cycle;Signal;HPM_P1;HPM_P2
2022/08/01 00:02:09;;;;;;;4.10;2.05;;;;;;;17.00;71.17;101270.81;7396493;19;20043;-49
2022/08/01 00:04:38;;;;;;;2.90;1.50;;;;;;;16.98;70.78;101282.38;7401483;19;20010;-49
2022/08/01 00:10:42;;;;;;;2.42;1.23;;;;;;;16.86;70.97;101287.38;7397340;19;20367;-49
2022/08/01 00:13:10;;;;;;;3.83;1.40;;;;;;;16.84;70.82;101284.94;7403170;19;20014;-50
2022/08/01 00:15:59;;;;;;;2.85;1.85;;;;;;;16.73;71.34;101283.94;7395908;19;20019;-48
2022/08/01 00:18:26;;;;;;;2.15;1.52;;;;;;;16.70;71.25;101290.31;7403111;19;20036;-48
2022/08/01 00:21:27;;;;;;;4.32;1.20;;;;;;;16.64;71.78;101280.63;7396486;19;20490;-49
2022/08/01 00:23:55;;;;;;;4.20;1.60;;;;;;;16.64;71.63;101275.03;7400078;19;20086;-50
2022/08/01 00:26:22;;;;;;;4.80;1.92;;;;;;;16.68;71.52;101280.69;7398220;19;20482;-50
2022/08/01 00:29:09;;;;;;;4.20;1.52;;;;;;;16.72;71.76;101285.16;7396806;19;20006;-48
2022/08/01 00:39:47;;;;;;;2.97;1.92;;;;;;;16.74;70.88;101274.41;7395346;19;20014;-48
2022/08/01 00:42:15;;;;;;;3.17;1.55;;;;;;;16.67;70.65;101263.09;7398225;19;20011;-49
2022/08/01 00:44:45;;;;;;;5.85;1.33;;;;;;;16.57;71.14;101274.09;7397169;19;20051;-52
2022/08/01 00:50:38;;;;;;;3.58;1.15;;;;;;;16.45;71.15;101273.06;7392968;19;20010;-49
2022/08/01 00:53:06;;;;;;;3.67;1.45;;;;;;;16.34;71.32;101260.88;7398094;19;20051;-50
2022/08/01 00:56:02;;;;;;;2.88;1.08;;;;;;;16.18;71.58;101271.34;7397940;19;20003;-52
2022/08/01 00:58:33;;;;;;;1.27;1.10;;;;;;;16.15;71.28;101272.09;7395295;19;20021;-48
2022/08/01 01:01:02;;;;;;;3.25;1.67;;;;;;;16.17;71.43;101272.56;7395929;19;20070;-50
2022/08/01 01:07:55;;;;;;;1.33;1.23;;;;;;;15.99;71.91;101276.19;7379183;19;20023;-55
2022/08/01 01:10:42;;;;;;;3.50;1.98;;;;;;;15.92;71.82;101268.47;7383042;19;20011;-48
2022/08/01 01:13:35;;;;;;;2.63;1.05;;;;;;;15.84;71.68;101261.94;7388638;19;20006;-48
2022/08/01 01:16:19;;;;;;;2.17;1.83;;;;;;;15.82;71.84;101280.22;7394305;19;20598;-47
2022/08/01 01:19:29;;;;;;;1.83;1.00;;;;;;;15.84;71.73;101269.50;7393395;19;20489;-52
2022/08/01 01:22:57;;;;;;;2.50;1.40;;;;;;;15.82;71.35;101266.25;7401058;19;20002;-50
2022/08/01 01:25:24;;;;;;;2.15;1.95;;;;;;;15.78;71.69;101265.38;7397860;19;20014;-51
2022/08/01 01:31:21;;;;;;;2.53;1.10;;;;;;;15.74;71.60;101258.91;7394089;19;20018;-51
2022/08/01 01:33:53;;;;;;;2.35;1.20;;;;;;;15.68;71.57;101254.78;7393900;19;20074;-49
2022/08/01 01:36:24;;;;;;;2.17;1.00;;;;;;;15.66;72.07;101252.38;7398040;19;20014;-51
2022/08/01 01:39:14;;;;;;;1.33;1.00;;;;;;;15.66;71.95;101246.81;7394400;19;20370;-51
2022/08/01 01:42:05;;;;;;;3.67;1.38;;;;;;;15.62;72.05;101245.91;7399146;19;20006;-51
2022/08/01 01:44:34;;;;;;;;;;;;;;;15.57;72.11;101249.00;7398092;19;20018;-49
2022/08/01 01:47:02;;;;;;;3.25;1.52;;;;;;;15.59;71.87;101245.84;7399159;19;19926;-48
2022/08/01 01:49:38;;;;;;;1.75;1.45;;;;;;;15.49;72.05;101243.66;7390237;19;20022;-53
2022/08/01 01:52:08;;;;;;;3.75;1.20;;;;;;;15.47;72.15;101238.41;7392951;19;20011;-51
2022/08/01 01:54:46;;;;;;;1.45;1.35;;;;;;;15.40;72.83;101245.78;7393932;19;20029;-50
2022/08/01 01:57:27;;;;;;;2.80;1.50;;;;;;;15.38;72.99;101245.38;7392477;19;20025;-52
2022/08/01 02:00:14;;;;;;;3.10;1.30;;;;;;;15.37;72.62;101243.72;7393209;19;20029;-49
2022/08/01 02:02:43;;;;;;;1.00;0.90;;;;;;;15.38;72.49;101245.38;7394967;19;20464;-48
2022/08/01 02:05:12;;;;;;;3.05;1.15;;;;;;;15.35;72.79;101246.09;7394199;19;20364;-52
2022/08/01 02:11:21;;;;;;;1.60;1.50;;;;;;;15.22;72.55;101242.63;7390680;19;20018;-52
2022/08/01 02:27:45;;;;;;;3.35;1.50;;;;;;;15.04;72.83;101247.78;7392912;19;20018;-49
2022/08/01 02:34:13;;;;;;;2.22;1.38;;;;;;;14.98;72.71;101226.13;7393984;19;20014;-48
2022/08/01 02:37:02;;;;;;;1.98;1.75;;;;;;;14.92;73.15;101217.25;7397240;19;20487;-50
2022/08/01 02:54:53;;;;;;;2.50;1.23;;;;;;;14.69;73.48;101218.25;7394600;19;20019;-50
2022/08/01 03:01:49;;;;;;;1.70;1.60;;;;;;;14.61;74.07;101217.28;7396602;19;20015;-48
2022/08/01 03:04:19;;;;;;;2.33;1.52;;;;;;;14.65;73.89;101207.03;7400912;19;20468;-48
2022/08/01 03:10:17;;;;;;;6.20;1.48;;;;;;;14.59;73.95;101208.47;7397048;19;20019;-49
2022/08/01 03:12:46;;;;;;;4.32;1.42;;;;;;;14.60;74.48;101213.69;7404471;19;20047;-49
2022/08/01 03:15:24;;;;;;;4.15;1.70;;;;;;;14.62;74.50;101213.31;7400627;19;20014;-48
2022/08/01 03:22:03;;;;;;;3.22;1.33;;;;;;;14.50;74.63;101216.22;7394734;19;20364;-56
2022/08/01 03:24:32;;;;;;;2.33;1.50;;;;;;;14.53;74.20;101216.28;7384182;19;20048;-47
2022/08/01 03:27:02;;;;;;;1.70;1.40;;;;;;;14.51;74.40;101218.63;7379784;19;20060;-56
2022/08/01 03:29:31;;;;;;;2.53;1.17;;;;;;;14.53;74.28;101209.91;7381365;19;20014;-48
2022/08/01 03:32:01;;;;;;;3.72;1.40;;;;;;;14.53;74.30;101209.91;7382714;19;20043;-48
2022/08/01 03:34:29;;;;;;;2.92;1.17;;;;;;;14.49;74.20;101209.00;7400686;19;20018;-47
2022/08/01 03:40:32;;;;;;;3.67;1.05;;;;;;;14.33;74.56;101211.81;7397936;19;20033;-48
2022/08/01 03:43:35;;;;;;;1.50;1.20;;;;;;;14.28;74.61;101202.88;7403870;19;20047;-54
2022/08/01 03:46:09;;;;;;;4.28;3.03;;;;;;;14.30;74.55;101211.66;7399802;19;20477;-48
2022/08/01 03:48:42;;;;;;;3.15;1.42;;;;;;;14.26;74.59;101222.75;7399139;19;20010;-49
2022/08/01 03:51:12;;;;;;;6.60;1.42;;;;;;;14.24;74.86;101213.13;7398275;19;20373;-48
2022/08/01 03:53:42;;;;;;;5.78;1.42;;;;;;;14.21;75.00;101209.09;7400174;19;20382;-49
2022/08/01 03:56:11;;;;;;;2.00;1.58;;;;;;;14.23;75.20;101214.28;7393217;19;20500;-48
2022/08/01 04:02:14;;;;;;;2.83;1.67;;;;;;;14.17;75.06;101210.13;7399455;19;20499;-50
2022/08/01 04:08:59;;;;;;;4.30;2.22;;;;;;;14.08;75.61;101209.50;7399400;19;20349;-49
2022/08/01 04:15:03;;;;;;;4.32;1.85;;;;;;;14.12;75.33;101210.41;7395407;19;20010;-51
2022/08/01 04:17:32;;;;;;;3.10;1.70;;;;;;;14.07;75.53;101205.09;7397515;19;20007;-49
2022/08/01 04:20:00;;;;;;;3.63;1.80;;;;;;;14.04;75.73;101199.09;7395638;19;20977;-48
2022/08/01 04:22:27;;;;;;;4.40;1.75;;;;;;;14.04;75.61;101198.28;7403667;19;20039;-53
2022/08/01 04:28:34;;;;;;;2.90;1.80;;;;;;;14.03;76.12;101197.47;7398023;19;20360;-51
2022/08/01 04:38:31;;;;;;;3.75;1.75;;;;;;;14.08;75.81;101190.03;7396528;19;20011;-57
2022/08/01 04:44:18;;;;;;;3.10;1.95;;;;;;;14.11;75.38;101178.97;7397754;19;20015;-49
2022/08/01 04:46:48;;;;;;;4.00;1.60;;;;;;;14.08;75.55;101176.09;7397499;19;20019;-52
2022/08/01 04:49:16;;;;;;;5.88;2.20;;;;;;;14.06;75.67;101172.88;7400756;19;20015;-52
2022/08/01 04:55:18;;;;;;;2.63;1.80;;;;;;;13.97;76.05;101165.50;7398786;19;20499;-49
2022/08/01 04:58:10;;;;;;;2.45;1.70;;;;;;;13.95;76.31;101159.47;7395116;19;20037;-48
2022/08/01 05:00:42;;;;;;;3.80;1.88;;;;;;;13.96;76.28;101160.28;7392483;19;20357;-48
2022/08/01 05:07:15;;;;;;;2.22;1.38;;;;;;;13.89;76.96;101171.22;7395800;19;20051;-51
2022/08/01 05:09:45;;;;;;;4.60;1.40;;;;;;;13.93;76.68;101164.59;7396676;19;20030;-52
2022/08/01 05:15:31;;;;;;;9.98;1.75;;;;;;;13.90;76.96;101170.88;7392579;19;20018;-48
2022/08/01 05:24:48;;;;;;;2.95;1.80;;;;;;;14.12;76.19;101179.78;7396380;19;20018;-56
2022/08/01 05:27:39;;;;;;;3.85;1.88;;;;;;;14.18;76.27;101187.50;7393724;19;20041;-48
2022/08/01 05:30:08;;;;;;;4.93;1.90;;;;;;;14.22;76.52;101176.44;7393636;19;20256;-49
2022/08/01 05:32:36;;;;;;;5.65;1.70;;;;;;;14.23;76.87;101178.06;7400193;19;20340;-49
2022/08/01 05:42:13;;;;;;;2.25;2.05;;;;;;;14.25;77.28;101187.69;7393649;19;20333;-47
2022/08/01 05:44:41;;;;;;;2.17;1.90;;;;;;;14.27;77.51;101179.00;7390398;19;20034;-49
2022/08/01 05:47:08;;;;;;;3.38;1.95;;;;;;;14.29;77.50;101169.09;7379455;19;20104;-56
2022/08/01 05:49:35;;;;;;;4.65;2.63;;;;;;;14.29;77.55;101165.50;7371199;19;20035;-48
2022/08/01 05:55:52;;;;;;;5.57;2.10;;;;;;;14.28;78.19;101172.22;7394290;19;20014;-49
2022/08/01 06:01:57;;;;;;;6.50;2.50;;;;;;;14.41;77.93;101166.25;7392271;19;20011;-49
2022/08/01 06:04:25;;;;;;;3.58;2.40;;;;;;;14.47;78.09;101150.88;7394838;19;20474;-48
2022/08/01 06:14:15;;;;;;;2.05;1.92;;;;;;;14.61;78.55;101153.19;7394425;19;20340;-49
2022/08/01 06:16:43;;;;;;;4.38;2.50;;;;;;;14.65;78.09;101148.50;7394710;19;20013;-50
2022/08/01 06:19:53;;;;;;;3.78;1.80;;;;;;;14.66;78.48;101150.13;7398744;19;20010;-49
2022/08/01 06:22:21;;;;;;;2.95;2.45;;;;;;;14.69;78.35;101151.38;7399924;19;20022;-49
2022/08/01 06:28:45;;;;;;;4.10;2.40;;;;;;;14.74;78.52;101142.72;7395721;19;20006;-49
2022/08/01 06:31:47;;;;;;;3.72;2.63;;;;;;;14.74;78.71;101151.91;7390123;19;20022;-49
2022/08/01 06:34:15;;;;;;;;;;;;;;;14.71;78.83;101152.63;7391977;19;20048;-48
2022/08/01 06:36:42;;;;;;;3.38;2.58;;;;;;;14.78;78.92;101138.84;7394955;19;19944;-48
2022/08/01 06:39:14;;;;;;;3.28;2.00;;;;;;;14.85;78.71;101132.63;7395794;19;20011;-50
2022/08/01 06:41:41;;;;;;;3.30;2.75;;;;;;;14.90;78.89;101135.94;7392966;19;20029;-49
2022/08/01 06:44:09;;;;;;;3.58;2.50;;;;;;;14.95;79.03;101132.88;7394503;19;20028;-49
2022/08/01 06:46:39;;;;;;;3.30;2.10;;;;;;;15.00;79.28;101135.38;7392457;19;20014;-48
2022/08/01 06:49:06;;;;;;;2.63;1.98;;;;;;;15.06;79.30;101122.72;7390535;19;20078;-49
2022/08/01 06:52:22;;;;;;;4.25;2.40;;;;;;;15.13;79.04;101133.25;7393314;19;20015;-52
2022/08/01 06:54:49;;;;;;;1.95;1.70;;;;;;;15.20;79.00;101136.16;7392132;19;20472;-48
2022/08/01 06:57:17;;;;;;;2.20;1.60;;;;;;;15.27;78.53;101135.53;7396438;19;20010;-49
2022/08/01 06:59:55;;;;;;;3.70;1.92;;;;;;;15.32;78.79;101135.22;7392662;19;20092;-50
2022/08/01 07:06:11;;;;;;;1.98;1.70;;;;;;;15.42;77.83;101123.47;7394335;19;20006;-48
2022/08/01 07:09:01;;;;;;;2.97;1.70;;;;;;;15.46;77.72;101125.16;7391039;19;20033;-49
2022/08/01 07:11:38;;;;;;;3.72;1.33;;;;;;;15.54;77.98;101131.72;7394323;19;20017;-53
2022/08/01 07:14:06;;;;;;;1.45;1.20;;;;;;;15.60;77.68;101127.44;7393152;19;20512;-48
2022/08/01 07:16:34;;;;;;;1.33;1.23;;;;;;;15.65;77.82;101121.53;7394933;19;20010;-48
2022/08/01 07:19:01;;;;;;;1.25;1.13;;;;;;;15.71;77.17;101128.44;7393317;19;20044;-50
2022/08/01 07:25:09;;;;;;;5.45;1.00;;;;;;;15.87;77.16;101136.72;7393397;19;20015;-48
2022/08/01 07:27:37;;;;;;;2.00;1.02;;;;;;;15.95;77.28;101139.25;7391763;19;20015;-48
2022/08/01 07:30:05;;;;;;;2.20;1.25;;;;;;;16.03;77.14;101138.22;7390343;19;20022;-50
2022/08/01 07:32:34;;;;;;;2.83;1.48;;;;;;;16.10;77.02;101134.72;7392714;19;20011;-49
2022/08/01 07:42:32;;;;;;;4.75;2.10;;;;;;;16.37;77.80;101131.59;7402854;19;20007;-49
2022/08/01 07:45:01;;;;;;;1.20;1.00;;;;;;;16.47;78.12;101141.31;7395689;19;20572;-52
2022/08/01 07:47:28;;;;;;;3.75;1.40;;;;;;;16.59;78.45;101137.56;7400170;19;20041;-54
2022/08/01 07:50:00;;;;;;;2.08;1.58;;;;;;;16.69;78.50;101131.31;7397665;19;20015;-50
2022/08/01 07:52:30;;;;;;;2.50;1.35;;;;;;;16.83;79.12;101139.91;7395721;19;20019;-50
2022/08/01 07:54:58;;;;;;;1.33;1.00;;;;;;;16.95;79.46;101142.47;7397762;19;20613;-46
2022/08/01 07:57:26;;;;;;;3.60;1.30;;;;;;;17.11;79.73;101126.31;7395216;19;20021;-46
2022/08/01 07:59:54;;;;;;;2.20;1.48;;;;;;;17.30;80.56;101117.75;7395520;19;20018;-49
2022/08/01 08:02:21;;;;;;;1.88;0.77;;;;;;;17.47;80.68;101119.94;7397438;19;20018;-49
2022/08/01 08:04:49;;;;;;;2.58;1.10;;;;;;;17.72;81.60;101117.44;7383531;19;20011;-50
2022/08/01 08:07:16;;;;;;;1.63;1.00;;;;;;;17.99;81.76;101109.69;7384022;19;20015;-48
2022/08/01 08:09:44;;;;;;;2.00;1.08;;;;;;;18.28;81.12;101117.16;7373245;19;20025;-49
2022/08/01 08:12:17;;;;;;;2.45;1.13;;;;;;;18.67;80.59;101111.84;7392817;19;20018;-57
2022/08/01 08:14:55;;;;;;;0.93;0.88;;;;;;;19.13;78.42;101112.09;7391098;19;20007;-49
2022/08/01 08:17:31;;;;;;;2.83;0.90;;;;;;;19.68;76.82;101109.91;7393996;19;20022;-47
2022/08/01 08:20:04;;;;;;;0.90;0.90;;;;;;;20.36;74.44;101111.59;7397229;19;20026;-48
2022/08/01 08:22:35;;;;;;;1.85;0.65;;;;;;;21.09;71.35;101112.69;7396452;19;20483;-49
2022/08/01 08:25:03;;;;;;;1.55;0.95;;;;;;;21.88;67.55;101111.06;7398464;19;20018;-48
2022/08/01 08:27:52;;;;;;;0.63;0.52;;;;;;;22.60;63.28;101118.53;7395899;19;20043;-48
2022/08/01 08:38:01;;;;;;;1.75;0.80;;;;;;;24.83;57.58;101095.13;7400583;19;20480;-51
2022/08/01 08:40:50;;;;;;;2.08;0.60;;;;;;;25.37;55.11;101083.50;7397792;19;20006;-48
2022/08/01 08:43:38;;;;;;;0.90;0.70;;;;;;;25.74;51.94;101080.25;7399171;19;20014;-49
2022/08/01 08:46:08;;;;;;;4.30;0.80;;;;;;;26.01;51.44;101083.66;7395629;19;20335;-50
2022/08/01 08:48:37;;;;;;;2.53;0.60;;;;;;;26.17;50.31;101076.41;7393874;19;20106;-50
2022/08/01 08:51:05;;;;;;;0.70;0.70;;;;;;;26.32;49.33;101080.47;7391267;19;20433;-48
2022/08/01 08:53:33;;;;;;;1.23;0.45;;;;;;;26.26;49.03;101080.25;7399987;19;20010;-49
2022/08/01 08:59:51;;;;;;;2.80;0.55;;;;;;;25.63;47.84;101064.75;7394793;19;20014;-49
2022/08/01 09:05:46;;;;;;;0.95;0.75;;;;;;;24.36;50.22;101070.94;7395992;19;20520;-48
2022/08/01 09:08:37;;;;;;;2.13;0.63;;;;;;;24.11;49.74;101067.75;7394502;19;20366;-49
2022/08/01 09:11:25;;;;;;;0.32;0.32;;;;;;;23.96;50.33;101069.19;7400390;19;20006;-50
2022/08/01 09:14:34;;;;;;;0.88;0.80;;;;;;;23.82;49.83;101055.28;7394741;19;20018;-56
2022/08/01 09:17:08;;;;;;;1.95;0.60;;;;;;;23.52;50.70;101056.94;7394850;19;20010;-49
2022/08/01 09:23:33;;;;;;;1.92;0.73;;;;;;;22.84;51.19;101061.03;7400949;19;20010;-48
2022/08/01 09:29:28;;;;;;;1.58;0.85;;;;;;;22.26;52.34;101057.19;7398000;19;20010;-48
2022/08/01 09:32:06;;;;;;;0.65;0.55;;;;;;;22.12;52.71;101048.84;7389738;19;20039;-48
2022/08/01 09:34:46;;;;;;;3.85;0.90;;;;;;;22.02;53.40;101043.31;7394021;19;20061;-49
2022/08/01 09:37:17;;;;;;;1.83;0.73;;;;;;;21.96;53.31;101044.97;7393966;19;20036;-50
2022/08/01 09:39:57;;;;;;;2.25;0.90;;;;;;;21.96;54.21;101033.69;7397417;19;20021;-49
2022/08/01 09:46:14;;;;;;;0.52;0.52;;;;;;;22.14;54.74;101032.31;7394285;19;20028;-50
2022/08/01 09:49:05;;;;;;;2.05;0.70;;;;;;;22.41;53.94;101033.25;7394364;19;20037;-50
2022/08/01 09:51:39;;;;;;;0.93;0.60;;;;;;;22.64;53.94;101024.16;7392364;19;20504;-56
2022/08/01 09:54:33;;;;;;;2.83;0.45;;;;;;;22.83;53.55;101031.19;7395250;19;20475;-51
2022/08/01 09:57:15;;;;;;;2.67;1.05;;;;;;;23.26;52.55;101023.78;7394016;19;20010;-48
2022/08/01 09:59:47;;;;;;;1.67;0.65;;;;;;;23.68;52.24;101018.72;7394716;19;20006;-49
2022/08/01 10:02:42;;;;;;;4.00;1.60;;;;;;;24.17;51.90;101017.94;7393560;19;20018;-48
2022/08/01 10:05:11;;;;;;;0.82;0.73;;;;;;;24.45;50.81;101006.06;7387854;19;20011;-47
2022/08/01 10:07:58;;;;;;;2.85;0.80;;;;;;;24.64;50.10;101008.13;7391191;19;20010;-48
2022/08/01 10:10:26;;;;;;;2.60;1.20;;;;;;;24.68;49.79;101008.84;7389831;19;20047;-52
2022/08/01 10:12:59;;;;;;;4.90;1.55;;;;;;;24.83;49.95;101011.44;7392270;19;20018;-49
2022/08/01 10:15:27;;;;;;;2.35;1.00;;;;;;;24.96;49.06;101013.16;7391342;19;20018;-48
2022/08/01 10:18:06;;;;;;;2.47;0.68;;;;;;;24.96;48.84;101013.16;7391389;19;20015;-48
2022/08/01 10:20:54;;;;;;;1.95;0.80;;;;;;;24.86;49.64;101013.38;7389226;19;20336;-57
2022/08/01 10:23:29;;;;;;;0.95;0.75;;;;;;;24.83;49.11;101002.94;7391953;19;20035;-54
2022/08/01 10:26:08;;;;;;;1.88;1.05;;;;;;;24.69;50.16;100993.47;7382647;19;20418;-50
2022/08/01 10:28:56;;;;;;;2.72;1.20;;;;;;;24.52;50.58;101002.28;7374670;19;20015;-52
2022/08/01 10:31:30;;;;;;;1.23;1.10;;;;;;;24.48;50.70;100991.06;7378289;19;20019;-56
2022/08/01 10:33:59;;;;;;;2.95;1.13;;;;;;;24.47;51.04;100992.28;7387627;19;20014;-50
2022/08/01 10:36:28;;;;;;;1.67;1.58;;;;;;;24.26;50.94;100981.38;7394590;19;20017;-48
2022/08/01 10:38:56;;;;;;;2.20;1.67;;;;;;;24.29;51.84;100977.69;7389449;19;20017;-48
2022/08/01 10:41:52;;;;;;;3.08;1.42;;;;;;;24.39;51.81;100984.34;7390977;19;20019;-49
2022/08/01 10:44:24;;;;;;;4.53;2.55;;;;;;;24.34;52.32;100982.84;7389783;19;20011;-58
2022/08/01 10:47:02;;;;;;;3.45;1.17;;;;;;;24.15;52.83;100966.63;7391126;19;20376;-48
2022/08/01 10:49:38;;;;;;;4.75;1.45;;;;;;;24.04;52.94;100966.00;7388422;19;20637;-49
2022/08/01 10:52:06;;;;;;;2.58;1.50;;;;;;;23.92;53.14;100966.63;7391019;19;20042;-49
2022/08/01 10:55:05;;;;;;;2.25;1.55;;;;;;;23.80;54.28;100958.78;7386651;19;20010;-52
2022/08/01 10:57:47;;;;;;;2.45;1.42;;;;;;;23.75;54.39;100962.09;7391333;19;20010;-49
2022/08/01 11:00:31;;;;;;;3.45;1.40;;;;;;;23.60;54.73;100958.69;7388678;19;20033;-50
2022/08/01 11:03:03;;;;;;;5.13;1.40;;;;;;;23.52;54.99;100949.53;7393369;19;20090;-54
2022/08/01 11:05:35;;;;;;;2.10;1.05;;;;;;;23.48;55.57;100948.78;7390612;19;20023;-47
2022/08/01 11:08:22;;;;;;;4.32;1.98;;;;;;;23.45;55.68;100946.03;7393368;19;20063;-48
2022/08/01 11:11:01;;;;;;;2.83;1.50;;;;;;;23.35;56.09;100942.09;7393446;19;20015;-55
2022/08/01 11:14:11;;;;;;;4.18;1.23;;;;;;;23.25;56.33;100940.22;7393000;19;20010;-49
2022/08/01 11:16:41;;;;;;;2.55;1.40;;;;;;;23.18;56.36;100940.34;7399513;19;20081;-51
2022/08/01 11:19:53;;;;;;;4.50;1.65;;;;;;;23.08;57.68;100918.72;7399406;19;20092;-47
2022/08/01 11:22:22;;;;;;;5.57;1.73;;;;;;;23.00;57.22;100928.53;7399187;19;20364;-49
2022/08/01 11:24:56;;;;;;;4.22;1.67;;;;;;;22.95;57.83;100920.53;7398924;19;20341;-50
2022/08/01 11:27:32;;;;;;;1.23;1.10;;;;;;;22.84;57.99;100906.56;7399471;19;20014;-50
2022/08/01 11:30:08;;;;;;;1.85;1.40;;;;;;;22.81;58.74;100915.88;7399643;19;20007;-50
2022/08/01 11:32:47;;;;;;;4.30;1.73;;;;;;;22.79;58.62;100911.88;7397946;19;20007;-49
2022/08/01 11:35:36;;;;;;;5.28;3.83;;;;;;;22.74;58.38;100912.34;7401417;19;20033;-51
2022/08/01 11:38:24;;;;;;;9.60;6.32;;;;;;;22.69;58.50;100907.97;7397505;19;20011;-49
2022/08/01 11:41:13;;;;;;;3.60;2.80;;;;;;;22.63;59.05;100901.22;7400776;19;20003;-50
2022/08/01 11:44:15;;;;;;;3.40;2.67;;;;;;;22.55;59.33;100896.06;7399041;19;20038;-52
2022/08/01 11:46:48;;;;;;;3.72;1.45;;;;;;;22.47;59.21;100900.19;7396234;19;20014;-48
2022/08/01 11:49:28;;;;;;;5.80;3.65;;;;;;;22.37;59.72;100902.69;7398976;19;20015;-49
2022/08/01 11:52:07;;;;;;;4.55;2.53;;;;;;;22.27;60.51;100894.38;7395685;19;20494;-49
2022/08/01 11:54:57;;;;;;;4.07;1.70;;;;;;;22.20;60.78;100900.09;7396698;19;20011;-49
2022/08/01 11:58:01;;;;;;;3.55;1.88;;;;;;;22.18;61.01;100894.09;7398405;19;20448;-48
2022/08/01 12:00:32;;;;;;;1.58;1.30;;;;;;;22.16;60.65;100885.25;7396907;19;20018;-48
2022/08/01 12:03:03;;;;;;;1.45;0.85;;;;;;;22.18;60.35;100875.16;7398109;19;20368;-49
2022/08/01 12:05:33;;;;;;;0.47;0.47;;;;;;;22.25;59.70;100877.06;7398689;19;20010;-50
2022/08/01 12:08:03;;;;;;;0.98;0.60;;;;;;;22.24;58.90;100870.63;7398095;19;20040;-48
2022/08/01 12:10:37;;;;;;;0.82;0.80;;;;;;;22.25;58.28;100875.06;7396487;19;20015;-53
2022/08/01 12:13:17;;;;;;;0.57;0.50;;;;;;;22.19;58.40;100875.94;7399744;19;20013;-49
2022/08/01 12:15:51;;;;;;;0.60;0.60;;;;;;;22.15;58.74;100870.34;7397107;19;20018;-50
2022/08/01 12:18:23;;;;;;;1.38;0.90;;;;;;;22.14;58.86;100868.75;7396026;19;20017;-50
2022/08/01 12:21:04;;;;;;;2.70;0.70;;;;;;;22.11;59.17;100863.94;7395880;19;20352;-49
2022/08/01 12:23:33;;;;;;;3.20;0.82;;;;;;;22.15;58.77;100856.25;7395918;19;20026;-49
2022/08/01 12:26:01;;;;;;;6.18;1.00;;;;;;;22.16;59.37;100852.19;7394481;19;20019;-53
2022/08/01 12:28:28;;;;;;;0.75;0.50;;;;;;;22.21;58.79;100848.91;7399977;19;20457;-52
2022/08/01 12:30:56;;;;;;;2.72;0.60;;;;;;;22.21;58.44;100857.38;7395734;19;20487;-49
2022/08/01 12:33:24;;;;;;;2.72;0.90;;;;;;;22.20;58.91;100846.53;7396713;19;20472;-49
2022/08/01 12:35:52;;;;;;;4.03;0.93;;;;;;;22.21;58.96;100837.63;7394884;19;20044;-49
2022/08/01 12:38:26;;;;;;;0.57;0.32;;;;;;;22.29;58.50;100832.72;7394321;19;20033;-56
2022/08/01 12:41:29;;;;;;;12.93;3.35;;;;;;;22.36;58.88;100827.78;7395326;19;20018;-48
2022/08/01 12:43:56;;;;;;;1.08;0.70;;;;;;;22.45;58.73;100830.09;7388072;19;20460;-49
2022/08/01 12:46:25;;;;;;;1.77;0.60;;;;;;;22.50;58.71;100829.59;7377635;19;20018;-54
2022/08/01 12:48:53;;;;;;;3.13;1.02;;;;;;;22.55;58.33;100823.47;7382538;19;20062;-51
2022/08/01 12:51:21;;;;;;;0.90;0.43;;;;;;;22.59;58.81;100829.88;7375714;19;20022;-48
2022/08/01 12:53:48;;;;;;;0.82;0.47;;;;;;;22.67;58.77;100827.75;7388141;19;20014;-49
2022/08/01 12:56:31;;;;;;;3.13;0.60;;;;;;;22.79;58.04;100815.91;7393279;19;20025;-53
2022/08/01 12:59:00;;;;;;;5.35;0.90;;;;;;;22.92;58.58;100816.91;7396168;19;20387;-55
2022/08/01 13:01:28;;;;;;;4.05;1.20;;;;;;;23.02;58.11;100813.09;7388863;19;20075;-48
2022/08/01 13:04:01;;;;;;;2.42;0.45;;;;;;;23.10;57.99;100803.28;7394048;19;20074;-48
2022/08/01 13:06:29;;;;;;;0.75;0.75;;;;;;;23.14;57.88;100804.00;7394049;19;20018;-49
2022/08/01 13:09:07;;;;;;;2.22;0.57;;;;;;;23.11;57.63;100793.59;7396118;19;20015;-48
2022/08/01 13:11:36;;;;;;;0.85;0.30;;;;;;;23.19;57.38;100797.91;7394315;19;20047;-49
2022/08/01 13:14:27;;;;;;;0.65;0.30;;;;;;;23.23;57.74;100792.97;7397159;19;20003;-49
2022/08/01 13:16:55;;;;;;;1.17;0.32;;;;;;;23.27;57.58;100793.69;7392477;19;20043;-48
2022/08/01 13:19:44;;;;;;;0.30;0.30;;;;;;;23.23;57.14;100786.50;7394553;19;20079;-48
2022/08/01 13:22:12;;;;;;;2.13;0.30;;;;;;;23.12;57.47;100783.06;7391453;19;20018;-56
2022/08/01 13:24:40;;;;;;;0.43;0.30;;;;;;;23.01;57.65;100777.59;7395671;19;20002;-49
2022/08/01 13:27:19;;;;;;;0.15;0.15;;;;;;;22.87;57.78;100780.69;7392300;19;20014;-48
2022/08/01 13:29:49;;;;;;;1.48;0.22;;;;;;;22.75;58.60;100784.91;7393898;19;20517;-50
2022/08/01 13:32:19;;;;;;;0.40;0.30;;;;;;;22.59;59.12;100783.91;7390205;19;20495;-51
2022/08/01 13:35:38;;;;;;;1.52;0.17;;;;;;;22.35;60.55;100768.94;7396524;19;20010;-49
2022/08/01 13:38:06;;;;;;;0.47;0.10;;;;;;;22.28;59.75;100764.22;7394528;19;20026;-49
2022/08/01 13:40:33;;;;;;;0.20;0.10;;;;;;;22.20;60.10;100759.91;7392606;19;20018;-51
2022/08/01 13:43:01;;;;;;;0.30;0.10;;;;;;;22.06;61.02;100762.09;7394004;19;20014;-50
2022/08/01 13:48:45;;;;;;;0.25;0.10;;;;;;;21.82;61.73;100763.97;7398386;19;20011;-49
2022/08/01 13:51:26;;;;;;;0.68;0.20;;;;;;;21.80;62.46;100757.97;7393304;19;20011;-48
2022/08/01 13:53:54;;;;;;;1.10;0.20;;;;;;;21.82;62.09;100758.34;7395085;19;20100;-48
2022/08/01 13:56:42;;;;;;;0.40;0.10;;;;;;;21.83;62.41;100749.47;7392981;19;20468;-48
2022/08/01 13:59:10;;;;;;;0.30;0.13;;;;;;;21.87;62.41;100755.09;7397736;19;20014;-48
2022/08/01 14:01:37;;;;;;;1.38;0.20;;;;;;;21.86;62.19;100753.50;7390365;19;20014;-47
2022/08/01 14:04:16;;;;;;;0.65;0.10;;;;;;;21.72;63.61;100748.00;7395107;19;20014;-48
2022/08/01 14:06:43;;;;;;;0.10;0.10;;;;;;;21.70;63.11;100751.25;7391099;19;20006;-48
2022/08/01 14:09:30;;;;;;;0.20;0.20;;;;;;;21.65;65.47;100739.63;7392434;19;20014;-51
2022/08/01 14:12:08;;;;;;;0.15;0.15;;;;;;;21.71;65.64;100746.41;7393425;19;20007;-49
2022/08/01 14:14:37;;;;;;;0.52;0.20;;;;;;;21.69;65.05;100746.81;7394575;19;20010;-53
2022/08/01 14:17:05;;;;;;;3.30;0.20;;;;;;;21.69;65.13;100744.00;7393759;19;20011;-56
2022/08/01 14:19:33;;;;;;;1.15;0.38;;;;;;;21.71;65.84;100737.97;7393511;19;20011;-53
2022/08/01 14:22:05;;;;;;;0.88;0.20;;;;;;;21.72;66.29;100726.25;7394782;19;20006;-52
2022/08/01 14:24:34;;;;;;;0.35;0.13;;;;;;;21.60;66.50;100726.03;7395236;19;20014;-53
2022/08/01 14:31:05;;;;;;;0.20;0.20;;;;;;;21.31;68.53;100719.09;7393801;19;20030;-48
2022/08/01 14:33:33;;;;;;;0.15;0.15;;;;;;;21.27;68.07;100715.50;7396614;19;20010;-49
2022/08/01 14:36:03;;;;;;;0.17;0.17;;;;;;;21.26;68.69;100703.44;7391869;19;20021;-51
2022/08/01 14:38:50;;;;;;;0.30;0.20;;;;;;;21.25;68.87;100710.31;7392323;19;20010;-51
2022/08/01 14:41:21;;;;;;;1.63;0.13;;;;;;;21.27;69.05;100701.44;7393201;19;20010;-49
2022/08/01 14:43:48;;;;;;;0.32;0.20;;;;;;;21.24;69.38;100692.63;7391573;19;20462;-51
2022/08/01 14:46:16;;;;;;;0.20;0.10;;;;;;;21.20;69.47;100693.88;7395380;19;20086;-50
2022/08/01 14:48:43;;;;;;;0.38;0.10;;;;;;;21.21;69.80;100690.63;7390160;19;20601;-48
2022/08/01 14:54:36;;;;;;;0.00;0.00;;;;;;;21.08;69.96;100686.75;7391219;19;20472;-50
2022/08/01 15:01:06;;;;;;;;;;;;;;;21.02;71.23;100677.13;7391228;19;20018;-52
2022/08/01 15:03:34;;;;;;;0.47;0.10;;;;;;;21.08;70.18;100680.31;7388002;19;19919;-51
2022/08/01 15:06:02;;;;;;;0.15;0.10;;;;;;;21.12;69.97;100678.28;7383067;19;20022;-53
2022/08/01 15:08:31;;;;;;;1.40;0.05;;;;;;;21.12;70.49;100669.84;7381814;19;20063;-51
2022/08/01 15:10:58;;;;;;;0.40;0.20;;;;;;;21.17;70.51;100677.81;7382668;19;20021;-55
2022/08/01 15:13:26;;;;;;;0.32;0.20;;;;;;;21.17;71.03;100677.81;7388629;19;20476;-49
2022/08/01 15:15:54;;;;;;;1.05;0.30;;;;;;;21.15;71.55;100681.03;7392724;19;20011;-51
2022/08/01 15:18:27;;;;;;;1.50;0.40;;;;;;;21.13;71.85;100663.78;7390864;19;20029;-51
2022/08/01 15:20:57;;;;;;;1.55;0.15;;;;;;;21.09;72.28;100667.84;7392654;19;20018;-54
2022/08/01 15:23:24;;;;;;;0.63;0.30;;;;;;;21.08;72.64;100663.41;7394157;19;20018;-53